createdAt,value
2017-01-11T00:00:08.510Z,21.71
2017-01-11T00:00:49.151Z,21.71
2017-01-11T00:01:29.894Z,21.75
2017-01-11T00:02:10.586Z,21.67
2017-01-11T00:02:51.227Z,21.63
2017-01-11T00:03:31.900Z,21.61
2017-01-11T00:04:12.570Z,21.61
2017-01-11T00:04:53.203Z,21.6
2017-01-11T00:05:33.834Z,21.64
2017-01-11T00:06:14.548Z,21.67
2017-01-11T00:06:55.210Z,21.66
2017-01-11T00:07:35.849Z,21.6
2017-01-11T00:08:16.536Z,21.63
2017-01-11T00:08:57.170Z,21.6
2017-01-11T00:09:37.811Z,21.67
2017-01-11T00:10:18.504Z,21.64
2017-01-11T00:10:59.210Z,21.61
2017-01-11T00:11:39.843Z,21.67
2017-01-11T00:12:20.502Z,21.67
2017-01-11T00:13:01.157Z,21.75
2017-01-11T00:13:41.795Z,21.66
2017-01-11T00:14:22.428Z,21.71
2017-01-11T00:15:03.126Z,21.64
2017-01-11T00:15:43.872Z,21.59
2017-01-11T00:16:24.406Z,21.6
2017-01-11T00:17:05.974Z,21.63
2017-01-11T00:17:46.608Z,21.63
2017-01-11T00:18:27.301Z,21.6
2017-01-11T00:19:08.006Z,21.61
2017-01-11T00:19:48.687Z,21.64
2017-01-11T00:20:29.338Z,21.64
2017-01-11T00:21:10.037Z,21.59
2017-01-11T00:21:50.665Z,21.61
2017-01-11T00:22:31.312Z,21.63
2017-01-11T00:23:11.991Z,21.67
2017-01-11T00:23:52.750Z,21.64
2017-01-11T00:24:33.392Z,21.69
2017-01-11T00:25:14.047Z,21.63
2017-01-11T00:25:54.779Z,21.74
2017-01-11T00:26:35.447Z,21.6
2017-01-11T00:27:16.079Z,21.61
2017-01-11T00:27:56.769Z,21.59
2017-01-11T00:28:37.399Z,21.61
2017-01-11T00:29:18.034Z,21.57
2017-01-11T00:29:58.738Z,21.56
2017-01-11T00:30:39.438Z,21.61
2017-01-11T00:31:20.069Z,21.63
2017-01-11T00:32:00.743Z,21.64
2017-01-11T00:32:41.473Z,21.63
2017-01-11T00:33:22.194Z,21.6
2017-01-11T00:34:02.842Z,21.57
2017-01-11T00:34:43.558Z,21.57
2017-01-11T00:35:24.267Z,21.61
2017-01-11T00:36:04.909Z,21.61
2017-01-11T00:36:45.538Z,21.66
2017-01-11T00:37:26.211Z,21.71
2017-01-11T00:38:06.847Z,21.61
2017-01-11T00:38:47.508Z,21.71
2017-01-11T00:39:28.198Z,21.67
2017-01-11T00:40:08.864Z,21.69
2017-01-11T00:40:49.518Z,21.66
2017-01-11T00:41:30.250Z,21.72
2017-01-11T00:42:11.010Z,21.64
2017-01-11T00:42:51.639Z,21.6
2017-01-11T00:43:32.273Z,21.59
2017-01-11T00:44:12.935Z,21.63
2017-01-11T00:44:53.569Z,21.59
2017-01-11T00:45:34.278Z,21.67
2017-01-11T00:46:14.952Z,21.61
2017-01-11T00:46:55.598Z,21.6
2017-01-11T00:47:36.231Z,21.61
2017-01-11T00:48:16.877Z,21.75
2017-01-11T00:48:57.519Z,21.69
2017-01-11T00:49:38.151Z,21.75
2017-01-11T00:50:18.822Z,21.66
2017-01-11T00:50:59.535Z,21.71
2017-01-11T00:51:40.172Z,21.67
2017-01-11T00:52:20.846Z,21.69
2017-01-11T00:53:01.550Z,21.6
2017-01-11T00:53:42.185Z,21.64
2017-01-11T00:54:22.850Z,21.63
2017-01-11T00:55:03.579Z,21.66
2017-01-11T00:55:44.236Z,21.59
2017-01-11T00:56:24.885Z,21.56
2017-01-11T00:57:05.534Z,21.63
2017-01-11T00:57:46.204Z,21.66
2017-01-11T00:58:26.853Z,21.61
2017-01-11T00:59:07.521Z,21.63
2017-01-11T00:59:48.163Z,21.6
2017-01-11T01:00:28.799Z,21.6
2017-01-11T01:01:09.502Z,21.61
2017-01-11T01:01:50.193Z,21.63
2017-01-11T01:02:30.827Z,21.69
2017-01-11T01:03:11.504Z,21.67
2017-01-11T01:03:52.232Z,21.61
2017-01-11T01:04:32.994Z,21.61
2017-01-11T01:05:13.639Z,21.63
2017-01-11T01:05:54.349Z,21.69
2017-01-11T01:06:35.044Z,21.69
2017-01-11T01:07:15.686Z,21.6
2017-01-11T01:07:56.343Z,21.57
2017-01-11T01:08:37.022Z,21.57
2017-01-11T01:09:17.696Z,21.64
2017-01-11T01:09:58.291Z,21.56
2017-01-11T01:10:38.998Z,21.66
2017-01-11T01:11:19.629Z,21.63
2017-01-11T01:12:00.268Z,21.61
2017-01-11T01:12:40.927Z,21.69
2017-01-11T01:13:21.599Z,21.64
2017-01-11T01:14:02.231Z,21.63
2017-01-11T01:14:42.904Z,21.61
2017-01-11T01:15:23.549Z,21.6
2017-01-11T01:16:04.186Z,21.63
2017-01-11T01:16:44.866Z,21.61
2017-01-11T01:17:25.603Z,21.6
2017-01-11T01:18:06.233Z,21.66
2017-01-11T01:18:46.940Z,21.61
2017-01-11T01:19:27.654Z,21.61
2017-01-11T01:20:08.326Z,21.63
2017-01-11T01:20:48.983Z,21.59
2017-01-11T01:21:29.683Z,21.59
2017-01-11T01:22:10.389Z,21.59
2017-01-11T01:22:51.025Z,21.59
2017-01-11T01:23:31.740Z,21.59
2017-01-11T01:24:12.406Z,21.61
2017-01-11T01:24:53.096Z,21.59
2017-01-11T01:25:33.667Z,21.57
2017-01-11T01:26:14.338Z,21.63
2017-01-11T01:26:55.003Z,21.63
2017-01-11T01:27:35.651Z,21.64
2017-01-11T01:28:16.312Z,21.64
2017-01-11T01:28:56.987Z,21.6
2017-01-11T01:29:37.623Z,21.61
2017-01-11T01:30:18.292Z,21.63
2017-01-11T01:30:58.928Z,21.59
2017-01-11T01:31:39.570Z,21.6
2017-01-11T01:32:20.264Z,21.61
2017-01-11T01:33:00.971Z,21.59
2017-01-11T01:33:41.600Z,21.6
2017-01-11T01:34:22.267Z,21.53
2017-01-11T01:35:02.995Z,21.66
2017-01-11T01:35:43.659Z,21.61
2017-01-11T01:36:24.314Z,21.63
2017-01-11T01:37:05.030Z,21.64
2017-01-11T01:37:45.734Z,21.61
2017-01-11T01:38:26.362Z,21.61
2017-01-11T01:39:06.998Z,21.61
2017-01-11T01:39:47.704Z,21.57
2017-01-11T01:40:28.337Z,21.6
2017-01-11T01:41:09.004Z,21.66
2017-01-11T01:41:49.739Z,21.71
2017-01-11T01:42:30.406Z,21.72
2017-01-11T01:43:11.036Z,21.67
2017-01-11T01:43:51.684Z,21.61
2017-01-11T01:44:32.320Z,21.63
2017-01-11T01:45:13.015Z,21.61
2017-01-11T01:45:53.723Z,21.61
2017-01-11T01:46:34.424Z,21.67
2017-01-11T01:47:15.061Z,21.61
2017-01-11T01:47:55.727Z,21.61
2017-01-11T01:48:36.386Z,21.54
2017-01-11T01:49:17.023Z,21.57
2017-01-11T01:49:57.696Z,21.63
2017-01-11T01:50:38.418Z,21.53
2017-01-11T01:51:19.086Z,21.57
2017-01-11T01:51:59.722Z,21.66
2017-01-11T01:52:40.397Z,21.59
2017-01-11T01:53:21.055Z,21.57
2017-01-11T01:54:01.690Z,21.64
2017-01-11T01:54:42.364Z,21.63
2017-01-11T01:55:23.079Z,21.6
2017-01-11T01:56:03.706Z,21.61
2017-01-11T01:56:44.379Z,21.61
2017-01-11T01:57:25.028Z,21.61
2017-01-11T01:58:05.660Z,21.67
2017-01-11T01:58:46.344Z,21.66
2017-01-11T01:59:27.031Z,21.64
2017-01-11T02:00:07.691Z,21.54
2017-01-11T02:00:48.340Z,21.57
2017-01-11T02:01:29.027Z,21.61
2017-01-11T02:02:09.740Z,21.61
2017-01-11T02:02:50.384Z,21.59
2017-01-11T02:03:31.013Z,21.66
2017-01-11T02:04:11.725Z,21.67
2017-01-11T02:04:52.369Z,21.63
2017-01-11T02:05:33.029Z,21.61
2017-01-11T02:06:13.695Z,21.57
2017-01-11T02:06:54.344Z,21.67
2017-01-11T02:07:34.996Z,21.63
2017-01-11T02:08:15.701Z,21.63
2017-01-11T02:08:56.404Z,21.59
2017-01-11T02:09:37.048Z,21.57
2017-01-11T02:10:17.751Z,21.61
2017-01-11T02:10:58.457Z,21.61
2017-01-11T02:11:39.086Z,21.59
2017-01-11T02:12:19.760Z,21.61
2017-01-11T02:13:00.418Z,21.63
2017-01-11T02:13:41.052Z,21.69
2017-01-11T02:14:21.730Z,21.56
2017-01-11T02:15:02.421Z,21.53
2017-01-11T02:15:43.121Z,21.63
2017-01-11T02:16:23.766Z,21.59
2017-01-11T02:17:04.475Z,21.64
2017-01-11T02:17:45.226Z,21.63
2017-01-11T02:18:25.855Z,21.64
2017-01-11T02:19:06.517Z,21.63
2017-01-11T02:19:47.211Z,21.66
2017-01-11T02:20:27.842Z,21.64
2017-01-11T02:21:08.537Z,21.6
2017-01-11T02:21:49.227Z,21.71
2017-01-11T02:22:29.862Z,21.61
2017-01-11T02:23:10.498Z,21.63
2017-01-11T02:23:51.154Z,21.66
2017-01-11T02:24:31.802Z,21.67
2017-01-11T02:25:12.431Z,21.63
2017-01-11T02:25:53.114Z,21.63
2017-01-11T02:26:33.834Z,21.61
2017-01-11T02:27:14.482Z,21.67
2017-01-11T02:27:55.125Z,21.63
2017-01-11T02:28:35.795Z,21.69
2017-01-11T02:29:16.429Z,21.69
2017-01-11T02:29:57.100Z,21.63
2017-01-11T02:30:37.789Z,21.66
2017-01-11T02:31:18.462Z,21.66
2017-01-11T02:31:59.154Z,21.61
2017-01-11T02:32:39.879Z,21.64
2017-01-11T02:33:20.561Z,21.69
2017-01-11T02:34:01.184Z,21.59
2017-01-11T02:34:41.861Z,21.63
2017-01-11T02:35:22.526Z,21.64
2017-01-11T02:36:03.170Z,21.64
2017-01-11T02:36:43.820Z,21.61
2017-01-11T02:37:24.532Z,21.61
2017-01-11T02:38:05.194Z,21.63
2017-01-11T02:38:45.824Z,21.66
2017-01-11T02:39:26.532Z,21.63
2017-01-11T02:40:07.166Z,21.5
2017-01-11T02:40:47.793Z,21.61
2017-01-11T02:41:28.523Z,21.61
2017-01-11T02:42:09.211Z,21.71
2017-01-11T02:42:49.839Z,21.6
2017-01-11T02:43:30.511Z,21.67
2017-01-11T02:44:11.173Z,21.63
2017-01-11T02:44:51.809Z,21.61
2017-01-11T02:45:32.543Z,21.61
2017-01-11T02:46:13.196Z,21.6
2017-01-11T02:46:53.828Z,21.64
2017-01-11T02:47:34.463Z,21.61
2017-01-11T02:48:15.136Z,21.6
2017-01-11T02:48:55.814Z,21.61
2017-01-11T02:49:36.438Z,21.63
2017-01-11T02:50:17.135Z,21.61
2017-01-11T02:50:57.758Z,21.54
2017-01-11T02:51:38.397Z,21.67
2017-01-11T02:52:19.082Z,21.53
2017-01-11T02:52:59.783Z,21.64
2017-01-11T02:53:40.425Z,21.6
2017-01-11T02:54:21.102Z,21.66
2017-01-11T02:55:01.821Z,21.63
2017-01-11T02:55:42.485Z,21.61
2017-01-11T02:56:23.131Z,21.61
2017-01-11T02:57:03.846Z,21.63
2017-01-11T02:57:44.479Z,21.61
2017-01-11T02:58:25.118Z,21.66
2017-01-11T02:59:05.820Z,21.56
2017-01-11T02:59:46.513Z,21.57
2017-01-11T03:00:27.142Z,21.57
2017-01-11T03:01:07.823Z,21.63
2017-01-11T03:01:48.550Z,21.59
2017-01-11T03:02:29.180Z,21.66
2017-01-11T03:03:09.856Z,21.6
2017-01-11T03:03:50.505Z,21.64
2017-01-11T03:04:31.145Z,21.59
2017-01-11T03:05:11.779Z,21.6
2017-01-11T03:05:52.429Z,21.64
2017-01-11T03:06:33.142Z,21.6
2017-01-11T03:07:13.777Z,21.67
2017-01-11T03:07:54.476Z,21.6
2017-01-11T03:08:35.183Z,21.64
2017-01-11T03:09:15.812Z,21.57
2017-01-11T03:09:56.474Z,21.64
2017-01-11T03:10:37.114Z,21.6
2017-01-11T03:11:17.746Z,21.61
2017-01-11T03:11:58.400Z,21.6
2017-01-11T03:12:39.138Z,21.57
2017-01-11T03:13:19.882Z,21.67
2017-01-11T03:14:00.529Z,21.71
2017-01-11T03:14:41.249Z,21.74
2017-01-11T03:15:21.945Z,21.75
2017-01-11T03:16:02.581Z,21.71
2017-01-11T03:16:43.233Z,21.69
2017-01-11T03:17:23.933Z,21.72
2017-01-11T03:18:04.596Z,21.69
2017-01-11T03:18:45.243Z,21.74
2017-01-11T03:19:25.897Z,21.67
2017-01-11T03:20:06.599Z,21.69
2017-01-11T03:20:47.244Z,21.71
2017-01-11T03:21:27.919Z,21.63
2017-01-11T03:22:08.682Z,21.74
2017-01-11T03:22:49.314Z,21.63
2017-01-11T03:23:29.966Z,21.66
2017-01-11T03:24:10.660Z,21.75
2017-01-11T03:24:51.289Z,21.71
2017-01-11T03:25:31.920Z,21.64
2017-01-11T03:26:12.619Z,21.66
2017-01-11T03:26:53.316Z,21.64
2017-01-11T03:27:33.960Z,21.64
2017-01-11T03:28:14.656Z,21.72
2017-01-11T03:28:55.402Z,21.76
2017-01-11T03:29:36.042Z,21.69
2017-01-11T03:30:16.698Z,21.71
2017-01-11T03:30:57.387Z,21.76
2017-01-11T03:31:38.016Z,21.78
2017-01-11T03:32:18.659Z,21.78
2017-01-11T03:32:59.365Z,21.72
2017-01-11T03:33:40.028Z,21.67
2017-01-11T03:34:20.667Z,21.67
2017-01-11T03:35:01.361Z,21.71
2017-01-11T03:35:41.988Z,21.67
2017-01-11T03:36:22.617Z,21.69
2017-01-11T03:37:03.350Z,21.71
2017-01-11T03:37:44.048Z,21.72
2017-01-11T03:38:24.676Z,21.69
2017-01-11T03:39:05.351Z,21.71
2017-01-11T03:39:46.048Z,21.69
2017-01-11T03:40:26.677Z,21.76
2017-01-11T03:41:07.303Z,21.74
2017-01-11T03:41:48.012Z,21.81
2017-01-11T03:42:28.644Z,21.71
2017-01-11T03:43:09.274Z,21.78
2017-01-11T03:43:49.933Z,21.81
2017-01-11T03:44:30.607Z,21.79
2017-01-11T03:45:11.254Z,21.69
2017-01-11T03:45:51.944Z,21.75
2017-01-11T03:46:32.671Z,21.71
2017-01-11T03:47:13.301Z,21.67
2017-01-11T03:47:53.965Z,21.69
2017-01-11T03:48:34.623Z,21.64
2017-01-11T03:49:15.255Z,21.71
2017-01-11T03:49:55.923Z,21.64
2017-01-11T03:50:36.625Z,21.78
2017-01-11T03:51:17.290Z,21.76
2017-01-11T03:51:57.933Z,21.81
2017-01-11T03:52:38.646Z,21.78
2017-01-11T03:53:19.278Z,21.88
2017-01-11T03:53:59.905Z,21.74
2017-01-11T03:54:40.610Z,21.75
2017-01-11T03:55:21.310Z,21.81
2017-01-11T03:56:01.941Z,21.76
2017-01-11T03:56:42.634Z,21.82
2017-01-11T03:57:23.355Z,21.79
2017-01-11T03:58:03.983Z,21.79
2017-01-11T03:58:44.651Z,21.75
2017-01-11T03:59:25.338Z,21.78
2017-01-11T04:00:05.991Z,21.75
2017-01-11T04:00:46.621Z,21.76
2017-01-11T04:01:27.345Z,21.81
2017-01-11T04:02:08.058Z,21.71
2017-01-11T04:02:48.687Z,21.72
2017-01-11T04:03:29.358Z,21.78
2017-01-11T04:04:10.130Z,21.76
2017-01-11T04:04:50.826Z,21.85
2017-01-11T04:05:31.472Z,21.82
2017-01-11T04:06:12.135Z,21.83
2017-01-11T04:06:52.919Z,21.78
2017-01-11T04:07:33.558Z,21.81
2017-01-11T04:08:14.280Z,21.85
2017-01-11T04:08:54.913Z,21.78
2017-01-11T04:09:35.547Z,21.79
2017-01-11T04:10:16.171Z,21.88
2017-01-11T04:10:56.847Z,21.79
2017-01-11T04:11:37.544Z,21.69
2017-01-11T04:12:18.189Z,21.85
2017-01-11T04:12:58.863Z,21.78
2017-01-11T04:13:39.489Z,21.78
2017-01-11T04:14:20.113Z,21.81
2017-01-11T04:15:00.801Z,21.81
2017-01-11T04:15:41.508Z,21.79
2017-01-11T04:16:22.144Z,21.78
2017-01-11T04:17:02.871Z,21.81
2017-01-11T04:17:43.530Z,21.75
2017-01-11T04:18:24.161Z,21.79
2017-01-11T04:19:04.786Z,21.76
2017-01-11T04:19:45.463Z,21.83
2017-01-11T04:20:26.094Z,21.81
2017-01-11T04:21:06.757Z,21.82
2017-01-11T04:21:47.425Z,21.85
2017-01-11T04:22:28.121Z,21.78
2017-01-11T04:23:08.764Z,21.82
2017-01-11T04:23:49.448Z,21.78
2017-01-11T04:24:30.167Z,21.81
2017-01-11T04:25:10.795Z,21.79
2017-01-11T04:25:51.463Z,21.78
2017-01-11T04:26:32.139Z,21.82
2017-01-11T04:27:12.777Z,21.81
2017-01-11T04:27:53.425Z,21.79
2017-01-11T04:28:34.124Z,21.75
2017-01-11T04:29:14.753Z,21.82
2017-01-11T04:29:55.423Z,21.78
2017-01-11T04:30:36.067Z,21.78
2017-01-11T04:31:16.763Z,21.91
2017-01-11T04:31:57.442Z,21.78
2017-01-11T04:32:38.167Z,21.79
2017-01-11T04:33:18.858Z,21.81
2017-01-11T04:33:59.490Z,21.75
2017-01-11T04:34:40.119Z,21.75
2017-01-11T04:35:20.789Z,21.76
2017-01-11T04:36:01.424Z,21.83
2017-01-11T04:36:42.074Z,21.78
2017-01-11T04:37:22.779Z,21.79
2017-01-11T04:38:03.439Z,21.74
2017-01-11T04:38:44.084Z,21.88
2017-01-11T04:39:24.745Z,21.83
2017-01-11T04:40:05.416Z,21.75
2017-01-11T04:40:46.044Z,21.9
2017-01-11T04:41:26.728Z,21.85
2017-01-11T04:42:07.366Z,21.85
2017-01-11T04:42:47.995Z,21.91
2017-01-11T04:43:28.686Z,21.91
2017-01-11T04:44:09.407Z,21.81
2017-01-11T04:44:50.037Z,21.88
2017-01-11T04:45:30.699Z,21.81
2017-01-11T04:46:11.427Z,21.88
2017-01-11T04:46:52.055Z,21.79
2017-01-11T04:47:32.680Z,21.76
2017-01-11T04:48:13.400Z,21.79
2017-01-11T04:48:54.065Z,21.78
2017-01-11T04:49:34.694Z,21.78
2017-01-11T04:50:15.381Z,21.83
2017-01-11T04:50:56.012Z,21.79
2017-01-11T04:51:36.642Z,21.83
2017-01-11T04:52:17.339Z,21.85
2017-01-11T04:52:58.080Z,21.81
2017-01-11T04:53:38.708Z,21.9
2017-01-11T04:54:19.351Z,21.82
2017-01-11T04:55:00.008Z,21.81
2017-01-11T04:55:40.641Z,21.85
2017-01-11T04:56:21.347Z,21.91
2017-01-11T04:57:02.043Z,21.94
2017-01-11T04:57:42.679Z,21.88
2017-01-11T04:58:23.316Z,21.9
2017-01-11T04:59:04.041Z,21.9
2017-01-11T04:59:44.724Z,21.78
2017-01-11T05:00:25.351Z,21.78
2017-01-11T05:01:06.008Z,21.81
2017-01-11T05:01:46.693Z,21.82
2017-01-11T05:02:27.320Z,21.82
2017-01-11T05:03:08.020Z,21.78
2017-01-11T05:03:48.728Z,21.78
2017-01-11T05:04:29.405Z,21.88
2017-01-11T05:05:10.054Z,21.83
2017-01-11T05:05:50.772Z,21.83
2017-01-11T05:06:31.398Z,21.79
2017-01-11T05:07:12.043Z,21.85
2017-01-11T05:07:52.722Z,21.82
2017-01-11T05:08:33.442Z,21.83
2017-01-11T05:09:14.072Z,21.81
2017-01-11T05:09:54.741Z,21.85
2017-01-11T05:10:35.471Z,21.88
2017-01-11T05:11:16.129Z,21.9
2017-01-11T05:11:56.769Z,21.88
2017-01-11T05:12:37.492Z,21.85
2017-01-11T05:13:18.130Z,21.82
2017-01-11T05:13:58.761Z,21.88
2017-01-11T05:14:39.464Z,21.81
2017-01-11T05:15:20.170Z,21.79
2017-01-11T05:16:00.799Z,21.79
2017-01-11T05:16:41.462Z,21.9
2017-01-11T05:17:22.139Z,21.85
2017-01-11T05:18:02.769Z,21.82
2017-01-11T05:18:43.435Z,21.82
2017-01-11T05:19:24.122Z,21.76
2017-01-11T05:20:04.784Z,21.82
2017-01-11T05:20:45.418Z,21.81
2017-01-11T05:21:26.089Z,21.82
2017-01-11T05:22:06.764Z,21.85
2017-01-11T05:22:47.392Z,21.91
2017-01-11T05:23:28.072Z,21.9
2017-01-11T05:24:08.812Z,21.83
2017-01-11T05:24:49.446Z,21.82
2017-01-11T05:25:30.121Z,21.81
2017-01-11T05:26:10.848Z,21.78
2017-01-11T05:26:51.514Z,21.76
2017-01-11T05:27:32.156Z,21.83
2017-01-11T05:28:12.932Z,21.78
2017-01-11T05:28:53.624Z,21.78
2017-01-11T05:29:34.254Z,21.76
2017-01-11T05:30:14.922Z,21.83
2017-01-11T05:30:55.618Z,21.83
2017-01-11T05:31:36.365Z,21.76
2017-01-11T05:32:16.903Z,21.79
2017-01-11T05:32:57.613Z,21.78
2017-01-11T05:33:38.246Z,21.79
2017-01-11T05:34:18.877Z,21.82
2017-01-11T05:34:59.534Z,21.81
2017-01-11T05:35:40.171Z,21.79
2017-01-11T05:36:20.800Z,21.82
2017-01-11T05:37:01.444Z,21.78
2017-01-11T05:37:42.096Z,21.81
2017-01-11T05:38:22.743Z,21.76
2017-01-11T05:39:03.447Z,21.88
2017-01-11T05:39:44.081Z,21.72
2017-01-11T05:40:24.711Z,21.79
2017-01-11T05:41:05.419Z,21.71
2017-01-11T05:41:46.100Z,21.76
2017-01-11T05:42:26.724Z,21.82
2017-01-11T05:43:07.354Z,21.76
2017-01-11T05:43:47.981Z,21.82
2017-01-11T05:44:28.610Z,21.79
2017-01-11T05:45:09.297Z,21.78
2017-01-11T05:45:49.991Z,21.82
2017-01-11T05:46:30.621Z,21.76
2017-01-11T05:47:11.319Z,21.85
2017-01-11T05:47:52.025Z,21.85
2017-01-11T05:48:32.675Z,21.82
2017-01-11T05:49:13.321Z,21.76
2017-01-11T05:49:54.023Z,21.78
2017-01-11T05:50:34.649Z,21.88
2017-01-11T05:51:15.276Z,21.88
2017-01-11T05:51:56.017Z,21.81
2017-01-11T05:52:36.651Z,21.85
2017-01-11T05:53:17.279Z,21.81
2017-01-11T05:53:57.907Z,21.74
2017-01-11T05:54:38.535Z,21.76
2017-01-11T05:55:19.161Z,21.76
2017-01-11T05:55:59.787Z,21.76
2017-01-11T05:56:40.466Z,21.79
2017-01-11T05:57:21.100Z,21.78
2017-01-11T05:58:01.730Z,21.82
2017-01-11T05:58:42.393Z,21.81
2017-01-11T05:59:23.031Z,21.75
2017-01-11T06:00:03.669Z,21.79
2017-01-11T06:00:44.395Z,21.82
2017-01-11T06:01:25.035Z,21.76
2017-01-11T06:02:05.762Z,21.85
2017-01-11T06:02:46.457Z,21.81
2017-01-11T06:03:27.160Z,21.81
2017-01-11T06:04:07.797Z,21.78
2017-01-11T06:04:48.424Z,21.9
2017-01-11T06:05:29.073Z,21.76
2017-01-11T06:06:09.707Z,21.83
2017-01-11T06:06:50.348Z,21.79
2017-01-11T06:07:31.016Z,21.67
2017-01-11T06:08:11.647Z,21.79
2017-01-11T06:08:52.273Z,21.81
2017-01-11T06:09:32.905Z,21.75
2017-01-11T06:10:13.531Z,21.75
2017-01-11T06:10:54.199Z,21.88
2017-01-11T06:11:34.902Z,21.82
2017-01-11T06:12:15.546Z,21.79
2017-01-11T06:12:56.309Z,21.79
2017-01-11T06:13:36.972Z,21.81
2017-01-11T06:14:17.697Z,21.82
2017-01-11T06:14:58.345Z,21.76
2017-01-11T06:15:39.658Z,21.9
2017-01-11T06:16:20.287Z,21.91
2017-01-11T06:17:00.977Z,21.78
2017-01-11T06:17:41.695Z,21.75
2017-01-11T06:18:22.329Z,21.78
2017-01-11T06:19:02.994Z,21.81
2017-01-11T06:19:43.722Z,21.76
2017-01-11T06:20:31.051Z,21.78
2017-01-11T06:21:11.722Z,21.75
2017-01-11T06:21:52.444Z,21.75
2017-01-11T06:22:33.072Z,21.75
2017-01-11T06:23:13.721Z,21.78
2017-01-11T06:23:54.401Z,21.78
2017-01-11T06:24:35.027Z,21.79
2017-01-11T06:25:15.666Z,21.76
2017-01-11T06:25:56.315Z,21.67
2017-01-11T06:26:36.942Z,21.76
2017-01-11T06:27:17.621Z,21.81
2017-01-11T06:27:58.283Z,21.79
2017-01-11T06:28:38.911Z,21.88
2017-01-11T06:29:19.659Z,21.76
2017-01-11T06:30:00.312Z,21.82
2017-01-11T06:30:41.022Z,21.78
2017-01-11T06:31:21.563Z,21.72
2017-01-11T06:32:02.248Z,21.79
2017-01-11T06:32:42.967Z,21.81
2017-01-11T06:33:23.613Z,21.72
2017-01-11T06:34:04.333Z,21.74
2017-01-11T06:34:45.012Z,21.76
2017-01-11T06:35:25.652Z,21.71
2017-01-11T06:36:06.391Z,21.76
2017-01-11T06:36:47.126Z,21.66
2017-01-11T06:37:27.821Z,21.79
2017-01-11T06:38:08.454Z,21.67
2017-01-11T06:38:49.080Z,21.74
2017-01-11T06:39:29.729Z,21.71
2017-01-11T06:40:10.360Z,21.81
2017-01-11T06:40:50.985Z,21.81
2017-01-11T06:41:31.625Z,21.67
2017-01-11T06:42:12.255Z,21.69
2017-01-11T06:42:52.918Z,21.71
2017-01-11T06:43:33.589Z,21.64
2017-01-11T06:44:14.217Z,21.74
2017-01-11T06:44:54.904Z,21.69
2017-01-11T06:45:35.594Z,21.67
2017-01-11T06:46:16.224Z,21.69
2017-01-11T06:46:56.965Z,21.67
2017-01-11T06:47:37.622Z,21.71
2017-01-11T06:48:18.359Z,21.72
2017-01-11T06:48:58.999Z,21.72
2017-01-11T06:49:39.725Z,21.71
2017-01-11T06:50:20.393Z,21.71
2017-01-11T06:51:01.021Z,21.66
2017-01-11T06:51:41.772Z,21.69
2017-01-11T06:52:23.152Z,21.76
2017-01-11T06:53:03.738Z,21.75
2017-01-11T06:53:44.420Z,21.71
2017-01-11T06:54:25.149Z,21.75
2017-01-11T06:55:05.782Z,21.74
2017-01-11T06:55:46.465Z,21.78
2017-01-11T06:56:27.188Z,21.72
2017-01-11T06:57:07.812Z,21.66
2017-01-11T06:57:48.441Z,21.67
2017-01-11T06:58:29.110Z,21.67
2017-01-11T06:59:09.735Z,21.67
2017-01-11T06:59:50.366Z,21.67
2017-01-11T07:00:31.024Z,21.74
2017-01-11T07:01:11.653Z,21.71
2017-01-11T07:01:52.308Z,21.71
2017-01-11T07:02:33.039Z,21.69
2017-01-11T07:03:13.778Z,21.71
2017-01-11T07:03:54.421Z,21.69
2017-01-11T07:04:35.097Z,21.67
2017-01-11T07:05:15.808Z,21.72
2017-01-11T07:05:56.434Z,21.78
2017-01-11T07:06:37.103Z,21.74
2017-01-11T07:07:17.771Z,21.82
2017-01-11T07:07:58.403Z,21.72
2017-01-11T07:08:39.134Z,21.82
2017-01-11T07:09:19.837Z,21.79
2017-01-11T07:10:00.548Z,21.78
2017-01-11T07:10:41.185Z,21.81
2017-01-11T07:11:21.853Z,21.75
2017-01-11T07:12:02.570Z,21.72
2017-01-11T07:12:43.217Z,21.69
2017-01-11T07:13:23.953Z,21.72
2017-01-11T07:14:04.650Z,21.64
2017-01-11T07:14:45.289Z,21.67
2017-01-11T07:15:25.912Z,21.63
2017-01-11T07:16:06.578Z,21.71
2017-01-11T07:16:47.205Z,21.72
2017-01-11T07:17:27.836Z,21.67
2017-01-11T07:18:08.505Z,21.66
2017-01-11T07:18:49.153Z,21.81
2017-01-11T07:19:29.788Z,21.74
2017-01-11T07:20:10.484Z,21.81
2017-01-11T07:20:51.187Z,21.75
2017-01-11T07:21:31.818Z,21.75
2017-01-11T07:22:12.479Z,21.64
2017-01-11T07:22:53.125Z,21.69
2017-01-11T07:23:33.756Z,21.78
2017-01-11T07:24:14.415Z,21.67
2017-01-11T07:24:55.135Z,21.75
2017-01-11T07:25:35.894Z,21.76
2017-01-11T07:26:16.542Z,21.67
2017-01-11T07:26:57.193Z,21.71
2017-01-11T07:27:37.918Z,21.74
2017-01-11T07:28:18.555Z,21.74
2017-01-11T07:28:59.200Z,21.64
2017-01-11T07:29:39.874Z,21.72
2017-01-11T07:30:20.508Z,21.69
2017-01-11T07:31:01.931Z,21.78
2017-01-11T07:31:42.589Z,21.74
2017-01-11T07:32:23.233Z,21.71
2017-01-11T07:33:03.958Z,21.69
2017-01-11T07:33:44.698Z,21.74
2017-01-11T07:34:25.326Z,21.74
2017-01-11T07:35:06.063Z,21.83
2017-01-11T07:35:46.765Z,21.72
2017-01-11T07:36:27.437Z,21.75
2017-01-11T07:37:08.082Z,21.76
2017-01-11T07:37:48.778Z,21.76
2017-01-11T07:38:29.472Z,21.74
2017-01-11T07:39:10.104Z,21.72
2017-01-11T07:39:50.873Z,21.69
2017-01-11T07:40:31.553Z,21.72
2017-01-11T07:41:12.271Z,21.66
2017-01-11T07:41:52.915Z,21.72
2017-01-11T07:42:33.580Z,21.71
2017-01-11T07:43:14.295Z,21.74
2017-01-11T07:43:54.923Z,21.75
2017-01-11T07:44:35.603Z,21.69
2017-01-11T07:45:16.262Z,21.75
2017-01-11T07:45:56.895Z,21.76
2017-01-11T07:46:37.561Z,21.76
2017-01-11T07:47:18.292Z,21.81
2017-01-11T07:47:58.925Z,21.78
2017-01-11T07:48:39.563Z,21.75
2017-01-11T07:49:20.312Z,21.81
2017-01-11T07:50:01.081Z,21.76
2017-01-11T07:50:41.712Z,21.76
2017-01-11T07:51:22.365Z,21.67
2017-01-11T07:52:03.056Z,21.74
2017-01-11T07:52:43.679Z,21.74
2017-01-11T07:53:24.307Z,21.66
2017-01-11T07:54:05.005Z,21.69
2017-01-11T07:54:45.642Z,21.69
2017-01-11T07:55:26.274Z,21.78
2017-01-11T07:56:06.934Z,21.76
2017-01-11T07:56:47.576Z,21.72
2017-01-11T07:57:28.212Z,21.88
2017-01-11T07:58:08.931Z,21.76
2017-01-11T07:58:49.607Z,21.85
2017-01-11T07:59:30.235Z,21.92
2017-01-11T08:00:10.885Z,21.85
2017-01-11T08:00:51.659Z,21.85
2017-01-11T08:01:32.286Z,21.79
2017-01-11T08:02:12.935Z,21.79
2017-01-11T08:02:53.639Z,21.79
2017-01-11T08:03:34.319Z,21.74
2017-01-11T08:04:14.939Z,21.82
2017-01-11T08:04:55.593Z,21.79
2017-01-11T08:05:36.221Z,21.78
2017-01-11T08:06:16.853Z,21.76
2017-01-11T08:06:57.514Z,21.78
2017-01-11T08:07:38.149Z,21.79
2017-01-11T08:08:18.790Z,21.82
2017-01-11T08:08:59.506Z,21.81
2017-01-11T08:09:40.140Z,21.79
2017-01-11T08:10:20.770Z,21.82
2017-01-11T08:11:01.482Z,21.78
2017-01-11T08:11:42.161Z,21.88
2017-01-11T08:12:22.786Z,21.81
2017-01-11T08:13:03.559Z,21.81
2017-01-11T08:13:44.254Z,21.95
2017-01-11T08:14:24.928Z,21.82
2017-01-11T08:15:05.568Z,21.91
2017-01-11T08:15:46.265Z,21.9
2017-01-11T08:16:26.991Z,21.88
2017-01-11T08:17:07.618Z,21.9
2017-01-11T08:17:48.316Z,21.9
2017-01-11T08:18:29.015Z,21.81
2017-01-11T08:19:09.676Z,21.85
2017-01-11T08:19:50.333Z,21.85
2017-01-11T08:20:31.039Z,21.79
2017-01-11T08:21:11.717Z,21.82
2017-01-11T08:21:52.347Z,21.81
2017-01-11T08:22:33.002Z,21.88
2017-01-11T08:23:13.717Z,21.81
2017-01-11T08:23:54.362Z,21.91
2017-01-11T08:24:35.001Z,21.78
2017-01-11T08:25:15.669Z,21.91
2017-01-11T08:25:56.296Z,21.88
2017-01-11T08:26:36.925Z,21.88
2017-01-11T08:27:17.593Z,21.92
2017-01-11T08:27:58.237Z,21.97
2017-01-11T08:28:38.906Z,21.91
2017-01-11T08:29:19.591Z,21.92
2017-01-11T08:30:00.260Z,21.9
2017-01-11T08:30:40.903Z,21.91
2017-01-11T08:31:21.626Z,21.94
2017-01-11T08:32:02.254Z,21.83
2017-01-11T08:32:42.887Z,21.85
2017-01-11T08:33:23.591Z,21.9
2017-01-11T08:34:04.261Z,21.9
2017-01-11T08:34:44.899Z,21.85
2017-01-11T08:35:25.526Z,21.9
2017-01-11T08:36:07.096Z,21.78
2017-01-11T08:36:47.756Z,21.94
2017-01-11T08:37:28.453Z,21.97
2017-01-11T08:38:09.097Z,21.9
2017-01-11T08:38:49.743Z,21.91
2017-01-11T08:39:30.462Z,21.91
2017-01-11T08:40:11.227Z,21.91
2017-01-11T08:40:51.907Z,21.88
2017-01-11T08:41:32.559Z,21.88
2017-01-11T08:42:13.250Z,21.88
2017-01-11T08:42:53.974Z,21.88
2017-01-11T08:43:34.603Z,21.9
2017-01-11T08:44:15.238Z,21.83
2017-01-11T08:44:55.872Z,21.9